Time;durP1;ratioP1;P1;durP2;ratioP2;P2;SDS_P1;SDS_P2;PMS_P1;PMS_P2;Temp;Humidity;BMP_temperature;BMP_pressure;BME280_temperature;BME280_humidity;BME280_pressure;Samples;Min_cycle;Max_cycle;Signal;HPM_P1;HPM_P2
2023/09/29 00:01:51;;;;;;;6.03;3.30;;;;;17.30;101024.00;;;;10466738;28;20222;-83
2023/09/29 00:06:54;;;;;;;10.10;3.08;;;;;17.30;101017.00;;;;10447437;28;20238;-83
2023/09/29 00:11:58;;;;;;;10.98;3.67;;;;;17.30;101008.00;;;;10420726;28;20297;-84
2023/09/29 00:17:00;;;;;;;6.38;3.15;;;;;17.30;101013.00;;;;10441516;28;20210;-85
2023/09/29 00:22:04;;;;;;;13.40;3.10;;;;;17.40;100999.00;;;;10422662;28;20229;-77
2023/09/29 00:27:05;;;;;;;8.27;3.03;;;;;17.30;101014.00;;;;10439309;28;20206;-77
2023/09/29 00:32:08;;;;;;;9.10;2.60;;;;;17.30;101008.00;;;;10464348;28;20225;-77
2023/09/29 00:37:09;;;;;;;7.07;2.90;;;;;17.40;101007.00;;;;10454879;28;20198;-78
2023/09/29 00:42:12;;;;;;;18.35;3.40;;;;;17.40;100998.00;;;;10437200;28;20248;-78
2023/09/29 00:47:15;;;;;;;5.07;2.63;;;;;17.40;100995.00;;;;10431064;28;20225;-78
2023/09/29 00:52:18;;;;;;;8.80;2.88;;;;;17.40;101004.00;;;;10438189;28;20308;-79
2023/09/29 00:57:20;;;;;;;7.15;2.38;;;;;17.50;100995.00;;;;10441383;28;20218;-82
2023/09/29 01:02:23;;;;;;;10.52;3.17;;;;;17.60;100988.00;;;;10426780;28;20245;-77
2023/09/29 01:07:25;;;;;;;8.32;3.00;;;;;17.60;100985.00;;;;10429886;28;20202;-76
2023/09/29 01:12:27;;;;;;;6.53;2.67;;;;;17.60;100979.00;;;;10442387;28;20201;-77
2023/09/29 01:17:30;;;;;;;15.07;3.45;;;;;17.60;100957.00;;;;10452695;28;20201;-75
2023/09/29 01:22:33;;;;;;;6.47;3.15;;;;;17.60;100960.00;;;;10455624;28;20221;-76
2023/09/29 01:27:35;;;;;;;7.63;2.80;;;;;17.60;100950.00;;;;10441532;28;20214;-76
2023/09/29 01:32:37;;;;;;;7.82;2.35;;;;;17.50;100933.00;;;;10443634;28;20295;-78
2023/09/29 01:37:40;;;;;;;9.80;2.80;;;;;17.50;100931.00;;;;10449106;28;20205;-76
2023/09/29 01:42:43;;;;;;;8.93;3.00;;;;;17.50;100930.00;;;;10441054;28;20270;-79
2023/09/29 01:47:47;;;;;;;10.93;2.70;;;;;17.50;100936.00;;;;10442231;28;20226;-76
2023/09/29 01:52:50;;;;;;;6.82;2.45;;;;;17.50;100929.00;;;;10457983;28;20724;-75
2023/09/29 01:57:57;;;;;;;9.00;3.08;;;;;17.50;100920.00;;;;10443802;28;20216;-76
2023/09/29 02:03:06;;;;;;;7.15;2.75;;;;;17.60;100916.00;;;;10439453;28;20313;-75
2023/09/29 02:08:09;;;;;;;9.63;2.58;;;;;17.60;100916.00;;;;10433197;28;20232;-77
2023/09/29 02:13:12;;;;;;;7.38;3.30;;;;;17.60;100899.00;;;;10426611;28;20197;-76
2023/09/29 02:18:17;;;;;;;8.43;3.00;;;;;17.70;100899.00;;;;10454653;28;20201;-78
2023/09/29 02:23:22;;;;;;;7.38;3.20;;;;;17.70;100891.00;;;;10449528;28;20228;-76
2023/09/29 02:28:25;;;;;;;9.93;3.63;;;;;17.70;100876.00;;;;10430888;28;20205;-75
2023/09/29 02:33:29;;;;;;;5.25;2.63;;;;;17.80;100856.00;;;;10443187;28;20232;-76
2023/09/29 02:38:31;;;;;;;8.93;3.08;;;;;17.80;100856.00;;;;10468373;28;20209;-75
2023/09/29 02:43:33;;;;;;;6.43;2.80;;;;;17.80;100850.00;;;;10432769;28;20308;-79
2023/09/29 02:48:35;;;;;;;7.22;2.88;;;;;17.90;100864.00;;;;10470652;28;20206;-76
2023/09/29 02:53:37;;;;;;;5.65;2.58;;;;;17.90;100855.00;;;;10436198;28;20219;-77
2023/09/29 02:58:40;;;;;;;8.68;2.67;;;;;17.90;100853.00;;;;10440292;28;20293;-78
2023/09/29 03:03:45;;;;;;;7.47;2.80;;;;;18.00;100857.00;;;;10432741;28;20218;-75
2023/09/29 03:08:56;;;;;;;6.53;3.08;;;;;18.10;100843.00;;;;10439252;28;20289;-78
2023/09/29 03:13:59;;;;;;;4.25;2.72;;;;;18.10;100832.00;;;;10430788;28;20202;-76
2023/09/29 03:19:02;;;;;;;6.38;2.30;;;;;18.20;100831.00;;;;10426255;28;20263;-79
2023/09/29 03:24:07;;;;;;;6.05;2.58;;;;;18.20;100828.00;;;;10418291;28;20221;-78
2023/09/29 03:29:09;;;;;;;3.97;2.17;;;;;18.30;100832.00;;;;10441066;28;20856;-76
2023/09/29 03:34:11;;;;;;;6.20;2.13;;;;;18.30;100827.00;;;;10447075;28;20695;-77
2023/09/29 03:39:14;;;;;;;7.45;2.78;;;;;18.30;100831.00;;;;10443721;28;20204;-77
2023/09/29 03:44:17;;;;;;;4.10;2.47;;;;;18.40;100824.00;;;;10457071;28;20210;-76
2023/09/29 03:49:19;;;;;;;7.65;3.03;;;;;18.40;100820.00;;;;10432147;28;20263;-77
2023/09/29 03:54:21;;;;;;;5.00;2.58;;;;;18.40;100818.00;;;;10441664;28;20205;-75
2023/09/29 03:59:24;;;;;;;6.18;2.85;;;;;18.40;100817.00;;;;10429920;28;20210;-76
2023/09/29 04:04:26;;;;;;;4.65;2.63;;;;;18.50;100819.00;;;;10438604;28;20216;-79
2023/09/29 04:09:28;;;;;;;5.63;2.85;;;;;18.60;100794.00;;;;10435082;28;20209;-76
2023/09/29 04:14:30;;;;;;;4.95;2.83;;;;;18.60;100787.00;;;;10461070;28;20208;-75
2023/09/29 04:19:35;;;;;;;6.57;2.40;;;;;18.70;100787.00;;;;10434668;28;20263;-78
2023/09/29 04:24:38;;;;;;;6.55;2.88;;;;;18.70;100787.00;;;;10450355;28;20278;-77
2023/09/29 04:29:40;;;;;;;3.38;2.80;;;;;18.70;100779.00;;;;10430431;28;20227;-78
2023/09/29 04:34:42;;;;;;;5.63;2.45;;;;;18.70;100791.00;;;;10452902;28;20202;-84
2023/09/29 04:39:44;;;;;;;4.38;2.53;;;;;18.70;100799.00;;;;10447223;28;20200;-84
2023/09/29 04:44:46;;;;;;;6.30;2.80;;;;;18.70;100790.00;;;;10449335;28;20260;-84
2023/09/29 04:49:49;;;;;;;5.22;2.72;;;;;18.70;100796.00;;;;10456679;28;20209;-83
2023/09/29 04:54:51;;;;;;;3.42;2.58;;;;;18.70;100798.00;;;;10439403;28;20236;-83
2023/09/29 04:59:53;;;;;;;5.57;2.47;;;;;18.70;100799.00;;;;10457993;28;20201;-85
2023/09/29 05:04:56;;;;;;;4.43;2.30;;;;;18.70;100801.00;;;;10458849;28;20209;-85
2023/09/29 05:09:58;;;;;;;5.13;2.97;;;;;18.70;100798.00;;;;10428993;28;20212;-84
2023/09/29 05:15:01;;;;;;;7.60;2.60;;;;;18.70;100793.00;;;;10446373;28;20198;-84
2023/09/29 05:20:05;;;;;;;5.32;2.63;;;;;18.60;100798.00;;;;10431020;28;20212;-85
2023/09/29 05:25:07;;;;;;;6.78;2.85;;;;;18.50;100797.00;;;;10427422;28;20198;-84
2023/09/29 05:30:12;;;;;;;6.95;2.85;;;;;18.50;100792.00;;;;10452536;28;20268;-84
2023/09/29 05:35:14;;;;;;;3.80;2.28;;;;;18.50;100796.00;;;;10471258;28;20201;-81
2023/09/29 05:40:16;;;;;;;6.53;2.67;;;;;18.50;100797.00;;;;10501449;28;20218;-82
2023/09/29 05:45:19;;;;;;;4.82;2.60;;;;;18.40;100795.00;;;;10463219;28;20201;-82
2023/09/29 05:50:21;;;;;;;5.45;2.33;;;;;18.50;100808.00;;;;10450394;28;20275;-81
2023/09/29 05:55:24;;;;;;;5.85;2.58;;;;;18.60;100809.00;;;;10431665;28;20210;-82
2023/09/29 06:00:26;;;;;;;5.22;2.75;;;;;18.70;100807.00;;;;10427217;28;20244;-80
2023/09/29 06:05:29;;;;;;;4.60;2.67;;;;;18.80;100811.00;;;;10462577;28;20202;-83
2023/09/29 06:10:31;;;;;;;6.15;2.80;;;;;18.90;100814.00;;;;10414357;28;20687;-82
2023/09/29 06:15:33;;;;;;;3.40;2.95;;;;;19.00;100821.00;;;;10455869;28;20198;-81
2023/09/29 06:20:35;;;;;;;3.55;2.60;;;;;19.10;100820.00;;;;10448409;28;20391;-81
2023/09/29 06:25:37;;;;;;;6.50;2.80;;;;;19.30;100821.00;;;;10471432;28;20204;-82
2023/09/29 06:30:39;;;;;;;5.35;3.00;;;;;19.50;100824.00;;;;10440036;28;20205;-84
2023/09/29 06:35:41;;;;;;;4.57;2.28;;;;;19.70;100819.00;;;;10426496;28;20209;-81
2023/09/29 06:40:44;;;;;;;4.28;2.55;;;;;19.70;100825.00;;;;10447023;28;20304;-81
2023/09/29 06:45:46;;;;;;;4.22;2.40;;;;;19.70;100837.00;;;;10444868;28;20205;-81
2023/09/29 06:50:51;;;;;;;5.05;2.50;;;;;19.80;100831.00;;;;10428038;28;20204;-82
2023/09/29 06:55:53;;;;;;;6.55;2.72;;;;;19.80;100844.00;;;;10442315;28;20202;-81
2023/09/29 07:00:57;;;;;;;6.82;2.83;;;;;20.00;100835.00;;;;10450700;28;20280;-82
2023/09/29 07:06:03;;;;;;;4.45;2.60;;;;;20.10;100845.00;;;;10421374;28;20674;-82
2023/09/29 07:11:05;;;;;;;3.55;2.17;;;;;20.30;100851.00;;;;10435788;28;20193;-82
2023/09/29 07:16:07;;;;;;;3.50;2.35;;;;;20.50;100860.00;;;;10431161;28;20205;-82
2023/09/29 07:21:09;;;;;;;5.63;2.55;;;;;20.70;100865.00;;;;10448048;28;20225;-82
2023/09/29 07:26:12;;;;;;;5.38;3.05;;;;;20.80;100874.00;;;;10435656;28;20210;-82
2023/09/29 07:31:14;;;;;;;7.47;2.92;;;;;20.80;100877.00;;;;10445900;28;20230;-83
2023/09/29 07:36:16;;;;;;;8.00;3.00;;;;;20.80;100885.00;;;;10414409;28;20214;-82
2023/09/29 07:41:18;;;;;;;5.03;3.10;;;;;20.80;100880.00;;;;10445840;28;20836;-81
2023/09/29 07:46:20;;;;;;;6.40;3.28;;;;;20.90;100892.00;;;;10439863;28;20210;-81
2023/09/29 07:51:24;;;;;;;9.98;3.17;;;;;21.00;100899.00;;;;10449679;28;20218;-82
2023/09/29 07:56:26;;;;;;;9.52;3.53;;;;;20.90;100890.00;;;;10455866;28;20209;-82
2023/09/29 08:01:28;;;;;;;6.03;3.08;;;;;21.40;100906.00;;;;10446570;28;20218;-82
2023/09/29 08:06:30;;;;;;;7.47;3.10;;;;;21.90;100917.00;;;;10429949;28;20918;-81
2023/09/29 08:11:33;;;;;;;6.80;3.50;;;;;22.10;100935.00;;;;10440492;28;20259;-81
2023/09/29 08:16:36;;;;;;;8.50;3.38;;;;;22.30;100933.00;;;;10445327;28;20205;-81
2023/09/29 08:21:38;;;;;;;9.30;3.60;;;;;22.80;100938.00;;;;10446966;28;20213;-82
2023/09/29 08:26:41;;;;;;;5.97;3.03;;;;;23.70;100941.00;;;;10449045;28;20301;-82
2023/09/29 08:31:43;;;;;;;8.23;3.60;;;;;23.80;100952.00;;;;10458697;28;20626;-82
2023/09/29 08:36:46;;;;;;;9.38;3.45;;;;;23.60;100957.00;;;;10457599;28;20204;-81
2023/09/29 08:42:01;;;;;;;10.00;3.80;;;;;23.60;100959.00;;;;10450497;28;20237;-83
2023/09/29 08:47:05;;;;;;;6.88;3.28;;;;;24.10;100979.00;;;;10470236;28;20209;-82
2023/09/29 08:52:08;;;;;;;9.73;3.42;;;;;23.30;100990.00;;;;10467905;28;20209;-83
2023/09/29 08:57:11;;;;;;;9.77;3.80;;;;;22.40;100984.00;;;;10443659;28;20217;-83
2023/09/29 09:02:13;;;;;;;8.35;3.80;;;;;22.20;100996.00;;;;10447592;28;20287;-81
2023/09/29 09:07:15;;;;;;;8.90;3.50;;;;;22.30;101000.00;;;;10434599;28;20267;-82
2023/09/29 09:12:18;;;;;;;13.27;3.90;;;;;23.30;100995.00;;;;10434382;28;20202;-82
2023/09/29 09:17:20;;;;;;;11.02;4.20;;;;;23.70;101001.00;;;;10470153;28;20194;-82
2023/09/29 09:22:26;;;;;;;10.68;3.70;;;;;23.40;101001.00;;;;10440000;28;20230;-82
2023/09/29 09:27:52;;;;;;;7.20;3.13;;;;;23.10;101011.00;;;;10447819;28;20929;-82
2023/09/29 09:32:54;;;;;;;9.20;3.50;;;;;22.70;101021.00;;;;10475632;28;20820;-83
2023/09/29 09:37:59;;;;;;;8.45;3.40;;;;;22.00;101039.00;;;;10440801;28;20213;-82
2023/09/29 09:43:05;;;;;;;11.98;3.30;;;;;21.30;101056.00;;;;10432507;28;20317;-82
2023/09/29 09:48:09;;;;;;;6.97;3.28;;;;;20.60;101060.00;;;;10449988;28;20213;-84
2023/09/29 09:53:13;;;;;;;8.75;3.47;;;;;20.80;101073.00;;;;10449297;28;20210;-82
2023/09/29 09:58:17;;;;;;;8.57;3.08;;;;;20.90;101070.00;;;;10440953;28;20236;-82
2023/09/29 10:03:20;;;;;;;8.05;3.67;;;;;21.50;101071.00;;;;10450291;28;20295;-82
2023/09/29 10:08:30;;;;;;;8.35;3.20;;;;;21.90;101078.00;;;;10445714;28;20200;-81
2023/09/29 10:13:37;;;;;;;5.88;2.92;;;;;22.20;101089.00;;;;10431397;28;20269;-82
2023/09/29 10:18:40;;;;;;;5.03;2.83;;;;;22.20;101087.00;;;;10428898;28;20263;-82
2023/09/29 10:23:49;;;;;;;4.53;2.70;;;;;22.60;101087.00;;;;10430889;28;20753;-81
2023/09/29 10:29:00;;;;;;;9.02;3.00;;;;;23.80;101086.00;;;;10434391;28;20206;-82
2023/09/29 10:34:03;;;;;;;7.72;2.67;;;;;23.80;101096.00;;;;10435141;28;20206;-81
2023/09/29 10:39:05;;;;;;;8.13;2.78;;;;;23.20;101105.00;;;;10439981;28;20198;-81
2023/09/29 10:44:07;;;;;;;5.82;2.65;;;;;23.10;101112.00;;;;10420662;28;20222;-81
2023/09/29 10:49:09;;;;;;;8.15;2.85;;;;;22.80;101111.00;;;;10446889;28;20201;-81
2023/09/29 10:54:11;;;;;;;6.75;3.13;;;;;22.50;101114.00;;;;10441609;28;20213;-82
2023/09/29 10:59:13;;;;;;;4.75;2.72;;;;;22.40;101125.00;;;;10465257;28;20197;-82
2023/09/29 11:04:15;;;;;;;7.15;3.25;;;;;22.20;101133.00;;;;10448334;28;20214;-82
2023/09/29 11:09:19;;;;;;;8.10;3.00;;;;;21.70;101131.00;;;;10432478;28;20236;-82
2023/09/29 11:14:22;;;;;;;7.15;3.03;;;;;21.50;101147.00;;;;10453337;28;20832;-81
2023/09/29 11:19:30;;;;;;;8.57;3.60;;;;;21.50;101150.00;;;;10431961;28;20234;-82
2023/09/29 11:24:40;;;;;;;8.55;3.50;;;;;21.40;101149.00;;;;10435295;28;20304;-84
2023/09/29 11:29:43;;;;;;;7.22;3.90;;;;;21.10;101149.00;;;;10420074;28;20197;-82
2023/09/29 11:34:45;;;;;;;10.00;4.30;;;;;20.80;101156.00;;;;10466374;28;20941;-81
2023/09/29 11:39:47;;;;;;;10.65;4.75;;;;;20.80;101156.00;;;;10428725;28;20202;-82
2023/09/29 11:44:50;;;;;;;13.98;4.03;;;;;20.50;101165.00;;;;10420154;28;20225;-82
2023/09/29 11:49:52;;;;;;;8.05;3.60;;;;;19.90;101187.00;;;;10464273;28;20206;-81
2023/09/29 11:54:53;;;;;;;10.70;4.93;;;;;19.70;101204.00;;;;10485006;28;20205;-80
2023/09/29 11:59:55;;;;;;;6.93;3.53;;;;;19.80;101210.00;;;;10452346;28;20233;-80
2023/09/29 12:04:57;;;;;;;7.97;3.63;;;;;19.70;101214.00;;;;10444185;28;20225;-80
2023/09/29 12:09:59;;;;;;;5.47;3.65;;;;;20.00;101220.00;;;;10456403;28;20213;-81
2023/09/29 12:15:02;;;;;;;3.58;2.55;;;;;20.00;101231.00;;;;10428589;28;20602;-78
2023/09/29 12:20:07;;;;;;;6.00;2.90;;;;;19.20;101254.00;;;;10467587;28;20201;-80
2023/09/29 12:25:14;;;;;;;4.45;1.80;;;;;18.90;101278.00;;;;10447586;28;20202;-80
2023/09/29 12:30:17;;;;;;;3.58;2.47;;;;;18.70;101284.00;;;;10460283;28;20273;-82
2023/09/29 12:35:19;;;;;;;3.33;1.52;;;;;18.40;101298.00;;;;10473049;28;20192;-78
2023/09/29 12:40:21;;;;;;;5.32;1.90;;;;;18.40;101317.00;;;;10474223;28;20890;-79
2023/09/29 12:45:23;;;;;;;4.63;2.00;;;;;18.00;101329.00;;;;10432734;28;20364;-76
2023/09/29 12:50:25;;;;;;;3.20;1.90;;;;;17.70;101321.00;;;;10459297;28;20210;-76
2023/09/29 12:55:27;;;;;;;5.68;2.65;;;;;17.60;101331.00;;;;10464913;28;20304;-76
2023/09/29 13:00:29;;;;;;;8.02;2.65;;;;;18.60;101333.00;;;;10474798;28;20228;-74
2023/09/29 13:05:32;;;;;;;5.70;2.58;;;;;19.10;101330.00;;;;10476608;28;20217;-76
2023/09/29 13:10:37;;;;;;;5.57;2.00;;;;;19.40;101357.00;;;;10467022;28;20237;-76
2023/09/29 13:15:41;;;;;;;5.22;1.88;;;;;19.90;101358.00;;;;10477872;28;20209;-76
2023/09/29 13:20:44;;;;;;;5.40;1.80;;;;;20.10;101373.00;;;;10450427;28;20233;-75
2023/09/29 13:25:46;;;;;;;4.75;2.00;;;;;19.50;101383.00;;;;10455825;28;20271;-78
2023/09/29 13:30:48;;;;;;;7.03;2.30;;;;;18.90;101390.00;;;;10449037;28;20221;-76
2023/09/29 13:35:55;;;;;;;6.05;2.40;;;;;19.20;101399.00;;;;10443930;28;20217;-78
2023/09/29 13:40:57;;;;;;;5.82;2.40;;;;;19.70;101408.00;;;;10423587;28;20214;-78
2023/09/29 13:46:03;;;;;;;6.75;2.42;;;;;19.90;101407.00;;;;10425858;28;20709;-78
2023/09/29 13:51:06;;;;;;;7.82;2.67;;;;;20.50;101427.00;;;;10443080;28;20258;-85
2023/09/29 13:56:12;;;;;;;5.30;2.58;;;;;20.90;101420.00;;;;10473538;28;20494;-86
2023/09/29 14:01:18;;;;;;;7.35;2.33;;;;;20.80;101424.00;;;;10458237;28;20198;-84
2023/09/29 14:06:20;;;;;;;3.40;2.10;;;;;20.10;101445.00;;;;10442341;28;20579;-84
2023/09/29 14:11:22;;;;;;;6.32;2.92;;;;;19.50;101457.00;;;;10456361;28;20272;-84
2023/09/29 14:16:24;;;;;;;5.15;2.03;;;;;19.40;101464.00;;;;10461284;27;20236;-81
2023/09/29 14:21:26;;;;;;;7.05;2.35;;;;;19.20;101469.00;;;;10418185;28;20218;-86
2023/09/29 14:26:28;;;;;;;7.00;2.08;;;;;19.00;101494.00;;;;10439130;28;20249;-83
2023/09/29 14:31:30;;;;;;;9.48;2.42;;;;;18.70;101484.00;;;;10455511;28;20209;-85
2023/09/29 14:36:32;;;;;;;5.13;2.60;;;;;18.50;101502.00;;;;10433097;28;20197;-84
2023/09/29 14:41:34;;;;;;;6.28;2.28;;;;;18.10;101520.00;;;;10426864;28;20229;-82
2023/09/29 14:46:36;;;;;;;4.90;2.40;;;;;17.90;101533.00;;;;10442445;28;20210;-84
2023/09/29 14:51:38;;;;;;;9.48;2.80;;;;;17.80;101533.00;;;;10459953;28;20250;-83
2023/09/29 14:56:40;;;;;;;7.20;2.60;;;;;18.20;101543.00;;;;10460992;28;20264;-83
2023/09/29 15:01:42;;;;;;;6.82;3.28;;;;;18.40;101545.00;;;;10465176;28;20221;-85
2023/09/29 15:06:45;;;;;;;8.70;2.50;;;;;18.60;101559.00;;;;10458180;28;20213;-83
2023/09/29 15:11:48;;;;;;;7.38;3.05;;;;;18.60;101562.00;;;;10451453;28;20224;-83
2023/09/29 15:16:50;;;;;;;10.88;2.97;;;;;18.60;101579.00;;;;10432750;28;20253;-83
2023/09/29 15:21:53;;;;;;;8.32;2.50;;;;;18.60;101584.00;;;;10460759;28;20213;-83
2023/09/29 15:26:55;;;;;;;9.07;2.80;;;;;18.50;101589.00;;;;10427431;28;20206;-85
2023/09/29 15:31:57;;;;;;;10.68;2.88;;;;;18.40;101593.00;;;;10447014;28;20226;-85
2023/09/29 15:37:00;;;;;;;6.13;2.83;;;;;18.30;101612.00;;;;10447548;28;20229;-86
2023/09/29 15:42:03;;;;;;;5.43;2.55;;;;;18.30;101627.00;;;;10422512;28;20210;-83
2023/09/29 15:47:05;;;;;;;8.00;3.33;;;;;18.30;101630.00;;;;10426535;28;20194;-84
2023/09/29 15:52:07;;;;;;;8.38;3.67;;;;;18.30;101625.00;;;;10437905;28;20198;-86
2023/09/29 15:57:08;;;;;;;6.25;3.80;;;;;18.30;101629.00;;;;10457313;28;20910;-84
2023/09/29 16:02:10;;;;;;;6.45;3.08;;;;;18.20;101633.00;;;;10456468;28;20225;-85
2023/09/29 16:07:27;;;;;;;7.63;3.65;;;;;18.10;101632.00;;;;10472923;28;20186;-85
2023/09/29 16:12:30;;;;;;;5.55;3.28;;;;;18.10;101632.00;;;;10439255;28;20278;-86
2023/09/29 16:17:33;;;;;;;6.55;3.00;;;;;18.00;101637.00;;;;10422733;28;20397;-87
2023/09/29 16:22:35;;;;;;;10.35;3.30;;;;;17.90;101637.00;;;;10423639;28;20206;-85
2023/09/29 16:27:37;;;;;;;5.22;3.05;;;;;17.70;101646.00;;;;10422562;28;20186;-84
2023/09/29 16:32:39;;;;;;;4.93;2.90;;;;;17.60;101652.00;;;;10419382;28;20202;-86
2023/09/29 16:37:41;;;;;;;7.32;3.13;;;;;17.50;101666.00;;;;10442645;28;20225;-85
2023/09/29 16:42:43;;;;;;;5.97;3.33;;;;;17.50;101675.00;;;;10491404;23;20231;-83
2023/09/29 16:47:45;;;;;;;3.17;2.58;;;;;17.30;101672.00;;;;10314224;28;20715;-81
2023/09/29 16:52:48;;;;;;;8.25;3.25;;;;;17.10;101682.00;;;;10307250;28;20199;-82
2023/09/29 16:57:50;;;;;;;6.50;3.47;;;;;17.00;101694.00;;;;10315048;28;20195;-82
2023/09/29 17:02:59;;;;;;;5.47;3.35;;;;;16.70;101701.00;;;;10330177;28;20218;-82
2023/09/29 17:08:01;;;;;;;4.50;3.67;;;;;16.50;101709.00;;;;10332318;28;20319;-82
2023/09/29 17:13:05;;;;;;;6.82;3.92;;;;;16.30;101716.00;;;;10317595;28;20810;-83
2023/09/29 17:18:07;;;;;;;6.30;3.90;;;;;16.10;101738.00;;;;10329687;28;20196;-83
2023/09/29 17:23:09;;;;;;;6.32;3.58;;;;;15.80;101758.00;;;;10342578;28;20212;-83
2023/09/29 17:28:15;;;;;;;6.85;4.10;;;;;15.70;101758.00;;;;10333605;28;20287;-83
2023/09/29 17:33:17;;;;;;;10.70;4.05;;;;;15.50;101774.00;;;;10323399;28;20199;-82
2023/09/29 17:38:20;;;;;;;7.68;4.97;;;;;15.30;101778.00;;;;10327485;28;20192;-83
2023/09/29 17:43:22;;;;;;;8.63;4.55;;;;;15.20;101792.00;;;;10335267;28;20212;-83
2023/09/29 17:48:24;;;;;;;8.27;4.38;;;;;15.10;101790.00;;;;10359447;28;20219;-82
2023/09/29 17:53:44;;;;;;;8.52;4.40;;;;;15.00;101787.00;;;;10345129;28;20245;-82
2023/09/29 17:58:47;;;;;;;6.18;4.95;;;;;14.80;101788.00;;;;10344055;28;20202;-78
2023/09/29 18:03:51;;;;;;;9.02;5.45;;;;;14.70;101787.00;;;;10295651;28;20215;-80
2023/09/29 18:08:53;;;;;;;10.80;5.63;;;;;14.60;101790.00;;;;10333702;28;20788;-79
2023/09/29 18:13:57;;;;;;;7.63;4.90;;;;;14.50;101793.00;;;;10307804;28;20917;-79
2023/09/29 18:19:00;;;;;;;5.60;5.10;;;;;14.40;101816.00;;;;10308097;28;20294;-82
2023/09/29 18:24:05;;;;;;;9.35;5.65;;;;;14.30;101815.00;;;;10308175;28;20875;-80
2023/09/29 18:29:08;;;;;;;9.52;5.97;;;;;14.20;101817.00;;;;10342628;28;20204;-80
2023/09/29 18:34:11;;;;;;;9.85;5.70;;;;;14.10;101828.00;;;;10310269;28;20316;-82
2023/09/29 18:39:14;;;;;;;9.63;6.55;;;;;14.00;101844.00;;;;10325527;28;20750;-79
2023/09/29 18:44:16;;;;;;;12.13;5.70;;;;;13.90;101843.00;;;;10309929;28;20319;-81
2023/09/29 18:49:19;;;;;;;8.90;5.57;;;;;13.90;101843.00;;;;10335925;28;20277;-80
2023/09/29 18:54:24;;;;;;;9.73;5.07;;;;;13.80;101851.00;;;;10339996;28;20249;-82
2023/09/29 18:59:26;;;;;;;11.90;5.72;;;;;13.80;101845.00;;;;10305170;28;20564;-77
2023/09/29 19:04:31;;;;;;;6.80;4.85;;;;;13.70;101865.00;;;;10317176;28;20933;-80
2023/09/29 19:09:37;;;;;;;9.32;5.70;;;;;13.60;101874.00;;;;10333638;28;20278;-84
2023/09/29 19:14:42;;;;;;;7.83;5.60;;;;;13.60;101894.00;;;;10336610;28;20281;-80
2023/09/29 19:19:46;;;;;;;7.77;5.73;;;;;13.50;101902.00;;;;10355568;28;20538;-80
2023/09/29 19:24:50;;;;;;;8.77;5.50;;;;;13.40;101910.00;;;;10307815;28;20339;-85
2023/09/29 19:30:00;;;;;;;8.67;5.27;;;;;13.30;101901.00;;;;10276334;28;20286;-84
2023/09/29 19:35:07;;;;;;;10.60;5.73;;;;;13.20;101914.00;;;;10298776;28;20238;-80
2023/09/29 19:40:10;;;;;;;10.10;6.20;;;;;13.10;101923.00;;;;10308572;28;20767;-83
2023/09/29 19:45:12;;;;;;;10.07;5.43;;;;;13.10;101906.00;;;;10334606;28;21181;-82
2023/09/29 19:50:14;;;;;;;10.10;6.33;;;;;13.00;101911.00;;;;10322309;28;20288;-80
2023/09/29 19:55:16;;;;;;;8.83;5.43;;;;;12.90;101914.00;;;;10341051;28;20200;-81
2023/09/29 20:00:19;;;;;;;12.03;6.70;;;;;12.90;101908.00;;;;10319767;28;20207;-82
2023/09/29 20:05:22;;;;;;;11.50;6.27;;;;;12.90;101911.00;;;;10323586;28;20223;-83
2023/09/29 20:10:24;;;;;;;7.90;5.87;;;;;12.80;101915.00;;;;10326949;28;20199;-79
2023/09/29 20:15:27;;;;;;;8.60;5.83;;;;;12.80;101921.00;;;;10330050;28;20219;-80
2023/09/29 20:20:29;;;;;;;7.70;5.80;;;;;12.80;101931.00;;;;10356693;28;20282;-82
2023/09/29 20:25:32;;;;;;;9.03;6.53;;;;;12.70;101931.00;;;;10312037;28;20234;-80
2023/09/29 20:30:34;;;;;;;9.30;5.93;;;;;12.70;101944.00;;;;10339210;28;20193;-83
2023/09/29 20:35:37;;;;;;;10.20;5.97;;;;;12.60;101945.00;;;;10313959;28;20217;-83
2023/09/29 20:40:39;;;;;;;10.00;5.87;;;;;12.50;101947.00;;;;10311239;28;20557;-81
2023/09/29 20:45:45;;;;;;;9.20;5.57;;;;;12.50;101943.00;;;;10334845;28;20224;-80
2023/09/29 20:50:47;;;;;;;12.10;6.80;;;;;12.40;101946.00;;;;10327378;28;20211;-80
2023/09/29 20:55:50;;;;;;;12.40;6.63;;;;;12.30;101942.00;;;;10329578;28;20204;-83
2023/09/29 21:00:52;;;;;;;12.83;5.57;;;;;12.30;101933.00;;;;10341958;28;20653;-81
2023/09/29 21:06:01;;;;;;;14.83;6.80;;;;;12.20;101931.00;;;;10329135;28;20216;-82
2023/09/29 21:11:03;;;;;;;9.40;6.20;;;;;12.10;101934.00;;;;10329962;28;20222;-80
2023/09/29 21:16:06;;;;;;;11.73;6.50;;;;;12.10;101938.00;;;;10340247;28;21251;-78
2023/09/29 21:21:08;;;;;;;14.37;6.90;;;;;12.00;101942.00;;;;10323565;28;20214;-81
2023/09/29 21:26:12;;;;;;;12.83;7.10;;;;;12.00;101937.00;;;;10312302;28;20307;-82
2023/09/29 21:31:14;;;;;;;9.60;6.67;;;;;11.90;101951.00;;;;10352969;28;20193;-87
2023/09/29 21:36:18;;;;;;;10.53;6.40;;;;;11.90;101975.00;;;;10325902;28;20277;-86
2023/09/29 21:41:20;;;;;;;11.53;6.63;;;;;11.90;101961.00;;;;10318323;28;20289;-87
2023/09/29 21:46:22;;;;;;;14.77;7.73;;;;;11.90;101958.00;;;;10340742;28;20238;-86
2023/09/29 21:51:27;;;;;;;15.07;7.67;;;;;11.90;101966.00;;;;10330209;28;20618;-87
2023/09/29 21:56:29;;;;;;;15.43;7.87;;;;;12.00;101967.00;;;;10349859;28;20219;-83
2023/09/29 22:01:32;;;;;;;16.03;7.80;;;;;12.10;101966.00;;;;10335058;28;20246;-86
2023/09/29 22:06:34;;;;;;;19.03;9.70;;;;;12.20;101973.00;;;;10319659;28;20243;-89
2023/09/29 22:11:37;;;;;;;13.60;8.67;;;;;12.20;101966.00;;;;10341367;28;20257;-87
2023/09/29 22:16:40;;;;;;;20.50;8.53;;;;;12.20;101956.00;;;;10322060;28;20210;-84
2023/09/29 22:21:42;;;;;;;16.40;8.10;;;;;12.20;101959.00;;;;10309564;28;20212;-83
2023/09/29 22:26:44;;;;;;;15.93;7.60;;;;;12.10;101953.00;;;;10321290;28;20912;-83
2023/09/29 22:31:46;;;;;;;15.37;8.43;;;;;12.10;101965.00;;;;10325761;28;20203;-84
2023/09/29 22:36:48;;;;;;;13.90;8.27;;;;;12.10;101970.00;;;;10348409;28;20588;-83
2023/09/29 22:41:51;;;;;;;13.17;8.63;;;;;12.10;101970.00;;;;10305953;28;20228;-82
2023/09/29 22:46:53;;;;;;;13.10;7.87;;;;;12.00;101962.00;;;;10331567;28;20219;-78
2023/09/29 22:51:55;;;;;;;12.47;7.43;;;;;12.00;101961.00;;;;10343058;28;20203;-79
2023/09/29 22:56:57;;;;;;;16.13;8.33;;;;;12.00;101978.00;;;;10323133;28;20891;-78
2023/09/29 23:01:59;;;;;;;13.53;8.60;;;;;12.00;101964.00;;;;10315965;28;20211;-83
2023/09/29 23:07:02;;;;;;;11.43;7.80;;;;;12.00;101970.00;;;;10342064;28;20628;-79
2023/09/29 23:12:04;;;;;;;11.97;7.90;;;;;12.00;101978.00;;;;10331430;28;20269;-77
2023/09/29 23:17:06;;;;;;;14.80;7.97;;;;;12.00;101990.00;;;;10344178;28;20200;-81
2023/09/29 23:22:09;;;;;;;12.63;7.47;;;;;12.00;101981.00;;;;10327950;28;20223;-79
2023/09/29 23:27:11;;;;;;;13.43;7.50;;;;;12.00;101978.00;;;;10320574;28;20223;-81
2023/09/29 23:32:13;;;;;;;14.63;8.20;;;;;12.00;101977.00;;;;10301821;28;21083;-77
2023/09/29 23:37:15;;;;;;;17.10;7.70;;;;;12.10;101976.00;;;;10314671;28;20219;-78
2023/09/29 23:42:17;;;;;;;14.87;7.40;;;;;12.10;101979.00;;;;10346933;28;20200;-79
2023/09/29 23:47:19;;;;;;;15.13;8.37;;;;;12.20;101986.00;;;;10334014;28;20352;-80
2023/09/29 23:52:21;;;;;;;12.83;8.17;;;;;12.20;101992.00;;;;10343710;28;20199;-80
2023/09/29 23:57:23;;;;;;;11.40;7.13;;;;;12.20;101998.00;;;;10329852;28;20204;-81
